sensor_id;sensor_type;location;lat;lon;timestamp;pressure;altitude;pressure_sealevel;temperature;humidity
46111;BME280;31849;55.992;37.252;2023-12-20T00:02:40;97288.59;;;1.90;85.66
46111;BME280;31849;55.992;37.252;2023-12-20T00:07:49;97280.91;;;1.98;85.08
46111;BME280;31849;55.992;37.252;2023-12-20T00:12:52;97285.97;;;2.10;85.30
46111;BME280;31849;55.992;37.252;2023-12-20T00:17:57;97299.63;;;2.17;84.22
46111;BME280;31849;55.992;37.252;2023-12-20T00:23:02;97289.38;;;2.20;85.12
46111;BME280;31849;55.992;37.252;2023-12-20T00:28:06;97285.88;;;2.30;83.79
46111;BME280;31849;55.992;37.252;2023-12-20T00:33:11;97295.28;;;2.33;83.54
46111;BME280;31849;55.992;37.252;2023-12-20T00:38:15;97301.28;;;2.33;83.63
46111;BME280;31849;55.992;37.252;2023-12-20T00:43:19;97297.88;;;2.26;82.99
46111;BME280;31849;55.992;37.252;2023-12-20T00:48:24;97300.44;;;2.26;83.35
46111;BME280;31849;55.992;37.252;2023-12-20T00:53:29;97301.28;;;2.27;83.71
46111;BME280;31849;55.992;37.252;2023-12-20T00:58:32;97297.97;;;2.09;83.22
46111;BME280;31849;55.992;37.252;2023-12-20T01:03:37;97292.81;;;2.05;83.53
46111;BME280;31849;55.992;37.252;2023-12-20T01:08:41;97286.88;;;2.00;83.69
46111;BME280;31849;55.992;37.252;2023-12-20T01:13:44;97286.03;;;1.90;84.18
46111;BME280;31849;55.992;37.252;2023-12-20T01:18:49;97264.75;;;1.71;84.80
46111;BME280;31849;55.992;37.252;2023-12-20T01:23:53;97257.91;;;1.68;83.79
46111;BME280;31849;55.992;37.252;2023-12-20T01:28:57;97254.50;;;1.65;84.34
46111;BME280;31849;55.992;37.252;2023-12-20T01:34:02;97257.09;;;1.55;84.48
46111;BME280;31849;55.992;37.252;2023-12-20T01:39:06;97252.81;;;1.51;85.02
46111;BME280;31849;55.992;37.252;2023-12-20T01:44:26;97256.19;;;1.69;84.47
46111;BME280;31849;55.992;37.252;2023-12-20T01:49:31;97251.88;;;1.88;83.36
46111;BME280;31849;55.992;37.252;2023-12-20T01:54:35;97243.25;;;2.06;83.91
46111;BME280;31849;55.992;37.252;2023-12-20T01:59:39;97232.16;;;2.08;82.93
46111;BME280;31849;55.992;37.252;2023-12-20T02:04:45;97221.97;;;1.98;83.40
46111;BME280;31849;55.992;37.252;2023-12-20T02:09:50;97218.59;;;1.85;83.93
46111;BME280;31849;55.992;37.252;2023-12-20T02:14:53;97216.91;;;1.71;84.55
46111;BME280;31849;55.992;37.252;2023-12-20T02:19:59;97218.63;;;1.65;84.41
46111;BME280;31849;55.992;37.252;2023-12-20T02:25:06;97216.91;;;1.78;83.59
46111;BME280;31849;55.992;37.252;2023-12-20T02:30:10;97213.41;;;1.94;83.60
46111;BME280;31849;55.992;37.252;2023-12-20T02:35:14;97221.91;;;2.05;83.50
46111;BME280;31849;55.992;37.252;2023-12-20T02:40:19;97212.53;;;2.01;83.91
46111;BME280;31849;55.992;37.252;2023-12-20T02:45:22;97212.50;;;2.04;83.80
46111;BME280;31849;55.992;37.252;2023-12-20T02:50:26;97213.31;;;2.19;82.93
46111;BME280;31849;55.992;37.252;2023-12-20T02:55:31;97214.09;;;2.27;82.51
46111;BME280;31849;55.992;37.252;2023-12-20T03:00:34;97209.81;;;2.34;83.02
46111;BME280;31849;55.992;37.252;2023-12-20T03:05:38;97210.69;;;2.26;83.08
46111;BME280;31849;55.992;37.252;2023-12-20T03:10:43;97211.53;;;2.33;83.08
46111;BME280;31849;55.992;37.252;2023-12-20T03:15:47;97207.25;;;2.32;83.09
46111;BME280;31849;55.992;37.252;2023-12-20T03:20:50;97220.00;;;2.41;82.90
46111;BME280;31849;55.992;37.252;2023-12-20T03:25:56;97213.16;;;2.45;82.10
46111;BME280;31849;55.992;37.252;2023-12-20T03:31:00;97212.41;;;2.29;83.24
46111;BME280;31849;55.992;37.252;2023-12-20T03:36:05;97219.16;;;2.44;82.51
46111;BME280;31849;55.992;37.252;2023-12-20T03:41:10;97216.63;;;2.39;83.09
46111;BME280;31849;55.992;37.252;2023-12-20T03:46:14;97210.59;;;2.43;83.02
46111;BME280;31849;55.992;37.252;2023-12-20T03:51:17;97210.63;;;2.39;83.13
46111;BME280;31849;55.992;37.252;2023-12-20T03:56:22;97221.72;;;2.41;82.08
46111;BME280;31849;55.992;37.252;2023-12-20T04:01:26;97223.44;;;2.37;82.67
46111;BME280;31849;55.992;37.252;2023-12-20T04:06:30;97221.69;;;2.45;82.82
46111;BME280;31849;55.992;37.252;2023-12-20T04:11:35;97225.91;;;2.56;82.74
46111;BME280;31849;55.992;37.252;2023-12-20T04:16:39;97200.31;;;2.48;81.99
46111;BME280;31849;55.992;37.252;2023-12-20T04:21:47;97229.31;;;2.56;82.31
46111;BME280;31849;55.992;37.252;2023-12-20T04:26:52;97237.06;;;2.49;82.24
46111;BME280;31849;55.992;37.252;2023-12-20T04:31:56;97237.94;;;2.47;82.77
46111;BME280;31849;55.992;37.252;2023-12-20T04:37:00;97235.38;;;2.46;83.03
46111;BME280;31849;55.992;37.252;2023-12-20T04:42:06;97209.00;;;2.21;82.65
46111;BME280;31849;55.992;37.252;2023-12-20T04:47:10;97237.19;;;2.32;83.06
46111;BME280;31849;55.992;37.252;2023-12-20T04:52:14;97236.31;;;2.31;82.65
46111;BME280;31849;55.992;37.252;2023-12-20T04:57:19;97240.53;;;2.41;82.22
46111;BME280;31849;55.992;37.252;2023-12-20T05:02:23;97236.25;;;2.45;82.94
46111;BME280;31849;55.992;37.252;2023-12-20T05:07:27;97248.00;;;2.75;83.90
46111;BME280;31849;55.992;37.252;2023-12-20T05:12:32;97244.47;;;2.92;82.94
46111;BME280;31849;55.992;37.252;2023-12-20T05:17:35;97251.28;;;2.99;81.70
46111;BME280;31849;55.992;37.252;2023-12-20T05:22:41;97256.22;;;3.22;81.06
46111;BME280;31849;55.992;37.252;2023-12-20T05:27:46;97256.91;;;3.40;80.87
46111;BME280;31849;55.992;37.252;2023-12-20T05:32:50;97270.94;;;3.92;78.67
46111;BME280;31849;55.992;37.252;2023-12-20T05:37:53;97272.75;;;3.85;77.55
46111;BME280;31849;55.992;37.252;2023-12-20T05:42:58;97265.00;;;3.86;77.42
46111;BME280;31849;55.992;37.252;2023-12-20T05:48:03;97268.31;;;3.99;75.87
46111;BME280;31849;55.992;37.252;2023-12-20T05:53:07;97261.47;;;3.98;76.86
46111;BME280;31849;55.992;37.252;2023-12-20T05:58:12;97263.09;;;4.04;75.72
46111;BME280;31849;55.992;37.252;2023-12-20T06:03:16;97265.84;;;3.88;74.41
46111;BME280;31849;55.992;37.252;2023-12-20T06:08:19;97257.28;;;3.88;75.31
46111;BME280;31849;55.992;37.252;2023-12-20T06:13:25;97269.19;;;3.97;75.37
46111;BME280;31849;55.992;37.252;2023-12-20T06:18:29;97274.03;;;4.21;74.01
46111;BME280;31849;55.992;37.252;2023-12-20T06:23:32;97277.50;;;4.19;74.99
46111;BME280;31849;55.992;37.252;2023-12-20T06:28:37;97274.88;;;4.23;74.42
46111;BME280;31849;55.992;37.252;2023-12-20T06:33:43;97284.59;;;3.98;73.77
46111;BME280;31849;55.992;37.252;2023-12-20T06:38:47;97283.00;;;3.88;74.07
46111;BME280;31849;55.992;37.252;2023-12-20T06:43:52;97283.84;;;3.88;74.28
46111;BME280;31849;55.992;37.252;2023-12-20T06:48:56;97276.06;;;3.93;73.83
46111;BME280;31849;55.992;37.252;2023-12-20T06:54:00;97283.72;;;3.98;73.83
46111;BME280;31849;55.992;37.252;2023-12-20T06:59:06;97284.69;;;3.91;73.75
46111;BME280;31849;55.992;37.252;2023-12-20T07:04:10;97284.56;;;4.00;73.24
46111;BME280;31849;55.992;37.252;2023-12-20T07:09:14;97286.19;;;4.09;72.84
46111;BME280;31849;55.992;37.252;2023-12-20T07:14:19;97288.72;;;4.13;72.99
46111;BME280;31849;55.992;37.252;2023-12-20T07:19:23;97286.00;;;4.24;73.03
46111;BME280;31849;55.992;37.252;2023-12-20T07:24:26;97297.78;;;4.42;72.86
46111;BME280;31849;55.992;37.252;2023-12-20T07:29:32;97302.13;;;4.40;73.09
46111;BME280;31849;55.992;37.252;2023-12-20T07:34:35;97310.22;;;4.74;72.76
46111;BME280;31849;55.992;37.252;2023-12-20T07:39:40;97312.81;;;4.74;71.19
46111;BME280;31849;55.992;37.252;2023-12-20T07:44:45;97305.84;;;4.83;71.87
46111;BME280;31849;55.992;37.252;2023-12-20T07:49:49;97324.81;;;5.35;70.41
46111;BME280;31849;55.992;37.252;2023-12-20T07:54:54;97317.06;;;5.86;68.81
46111;BME280;31849;55.992;37.252;2023-12-20T07:59:59;97327.72;;;6.18;68.41
46111;BME280;31849;55.992;37.252;2023-12-20T08:05:05;97333.06;;;6.07;67.25
46111;BME280;31849;55.992;37.252;2023-12-20T08:10:09;97332.06;;;5.64;66.90
46111;BME280;31849;55.992;37.252;2023-12-20T08:15:15;97337.72;;;5.33;67.71
46111;BME280;31849;55.992;37.252;2023-12-20T08:20:18;97342.22;;;5.19;68.38
46111;BME280;31849;55.992;37.252;2023-12-20T08:25:33;97338.66;;;5.29;68.50
46111;BME280;31849;55.992;37.252;2023-12-20T08:30:38;97338.94;;;5.07;67.21
46111;BME280;31849;55.992;37.252;2023-12-20T08:35:42;97333.81;;;5.07;67.40
46111;BME280;31849;55.992;37.252;2023-12-20T08:40:46;97332.88;;;5.11;67.78
46111;BME280;31849;55.992;37.252;2023-12-20T08:45:52;97328.06;;;4.88;68.24
46111;BME280;31849;55.992;37.252;2023-12-20T08:50:55;97328.22;;;4.76;68.75
46111;BME280;31849;55.992;37.252;2023-12-20T08:55:59;97324.97;;;4.65;69.86
46111;BME280;31849;55.992;37.252;2023-12-20T09:01:05;97326.16;;;5.01;69.46
46111;BME280;31849;55.992;37.252;2023-12-20T09:06:10;97322.78;;;5.54;69.58
46111;BME280;31849;55.992;37.252;2023-12-20T09:11:13;97320.31;;;5.46;67.25
46111;BME280;31849;55.992;37.252;2023-12-20T09:16:19;97316.69;;;5.58;68.36
46111;BME280;31849;55.992;37.252;2023-12-20T09:21:23;97318.25;;;5.67;68.17
46111;BME280;31849;55.992;37.252;2023-12-20T09:26:28;97305.59;;;5.54;68.02
46111;BME280;31849;55.992;37.252;2023-12-20T09:31:33;97302.47;;;5.85;67.49
46111;BME280;31849;55.992;37.252;2023-12-20T09:36:37;97318.06;;;5.77;68.20
46111;BME280;31849;55.992;37.252;2023-12-20T09:41:45;97315.13;;;5.49;67.86
46111;BME280;31849;55.992;37.252;2023-12-20T09:46:51;97316.16;;;5.40;69.37
46111;BME280;31849;55.992;37.252;2023-12-20T09:51:56;97312.63;;;5.43;70.08
46111;BME280;31849;55.992;37.252;2023-12-20T09:57:00;97298.06;;;5.42;69.37
46111;BME280;31849;55.992;37.252;2023-12-20T10:02:12;97313.09;;;5.68;68.37
46111;BME280;31849;55.992;37.252;2023-12-20T10:07:17;97319.44;;;5.49;68.50
46111;BME280;31849;55.992;37.252;2023-12-20T10:12:22;97311.34;;;5.17;69.56
46111;BME280;31849;55.992;37.252;2023-12-20T10:17:27;97321.31;;;5.37;70.13
46111;BME280;31849;55.992;37.252;2023-12-20T10:22:32;97306.00;;;5.28;69.10
46111;BME280;31849;55.992;37.252;2023-12-20T10:27:36;97312.56;;;4.93;70.18
46111;BME280;31849;55.992;37.252;2023-12-20T10:32:41;97321.88;;;5.00;69.46
46111;BME280;31849;55.992;37.252;2023-12-20T10:37:45;97315.13;;;4.95;70.34
46111;BME280;31849;55.992;37.252;2023-12-20T10:42:50;97314.91;;;5.08;69.86
46111;BME280;31849;55.992;37.252;2023-12-20T10:47:56;97313.91;;;5.17;70.55
46111;BME280;31849;55.992;37.252;2023-12-20T10:53:02;97304.41;;;5.21;69.25
46111;BME280;31849;55.992;37.252;2023-12-20T10:58:07;97315.13;;;4.93;69.91
46111;BME280;31849;55.992;37.252;2023-12-20T11:03:13;97320.28;;;4.93;70.37
46111;BME280;31849;55.992;37.252;2023-12-20T11:08:23;97325.44;;;4.93;69.16
46111;BME280;31849;55.992;37.252;2023-12-20T11:13:34;97328.22;;;4.78;70.15
46111;BME280;31849;55.992;37.252;2023-12-20T11:18:42;97328.22;;;4.76;70.33
46111;BME280;31849;55.992;37.252;2023-12-20T11:23:46;97324.69;;;4.85;69.98
46111;BME280;31849;55.992;37.252;2023-12-20T11:28:49;97327.69;;;5.15;69.74
46111;BME280;31849;55.992;37.252;2023-12-20T11:34:12;97315.72;;;5.10;69.21
46111;BME280;31849;55.992;37.252;2023-12-20T11:39:22;97327.03;;;5.00;69.10
46111;BME280;31849;55.992;37.252;2023-12-20T11:44:50;97335.91;;;4.79;69.14
46111;BME280;31849;55.992;37.252;2023-12-20T11:49:55;97332.66;;;4.68;69.78
46111;BME280;31849;55.992;37.252;2023-12-20T11:54:59;97342.94;;;4.69;70.10
46111;BME280;31849;55.992;37.252;2023-12-20T12:00:06;97350.03;;;4.49;69.94
46111;BME280;31849;55.992;37.252;2023-12-20T12:05:12;97348.97;;;4.67;70.67
46111;BME280;31849;55.992;37.252;2023-12-20T12:10:16;97353.91;;;4.81;70.97
46111;BME280;31849;55.992;37.252;2023-12-20T12:15:19;97365.09;;;4.81;70.71
46111;BME280;31849;55.992;37.252;2023-12-20T12:20:25;97360.88;;;4.75;70.59
46111;BME280;31849;55.992;37.252;2023-12-20T12:25:29;97362.44;;;4.87;70.37
46111;BME280;31849;55.992;37.252;2023-12-20T12:30:34;97357.94;;;5.03;69.61
46111;BME280;31849;55.992;37.252;2023-12-20T12:35:48;97358.06;;;4.92;69.28
46111;BME280;31849;55.992;37.252;2023-12-20T12:40:52;97381.34;;;4.85;68.97
46111;BME280;31849;55.992;37.252;2023-12-20T12:45:56;97385.00;;;4.65;70.02
46111;BME280;31849;55.992;37.252;2023-12-20T12:51:01;97382.38;;;4.71;70.22
46111;BME280;31849;55.992;37.252;2023-12-20T12:56:05;97378.31;;;4.50;71.23
46111;BME280;31849;55.992;37.252;2023-12-20T13:01:09;97370.13;;;4.16;71.56
46111;BME280;31849;55.992;37.252;2023-12-20T13:06:14;97362.75;;;3.83;71.53
46111;BME280;31849;55.992;37.252;2023-12-20T13:11:18;97361.97;;;3.70;72.08
46111;BME280;31849;55.992;37.252;2023-12-20T13:16:22;97344.78;;;3.80;72.85
46111;BME280;31849;55.992;37.252;2023-12-20T13:21:28;97340.69;;;3.61;72.38
46111;BME280;31849;55.992;37.252;2023-12-20T13:26:33;97340.03;;;3.36;72.91
46111;BME280;31849;55.992;37.252;2023-12-20T13:31:36;97342.69;;;3.22;73.08
46111;BME280;31849;55.992;37.252;2023-12-20T13:36:42;97356.38;;;3.19;73.54
46111;BME280;31849;55.992;37.252;2023-12-20T13:41:48;97357.25;;;3.18;74.20
46111;BME280;31849;55.992;37.252;2023-12-20T13:46:51;97352.22;;;3.03;73.58
46111;BME280;31849;55.992;37.252;2023-12-20T13:51:57;97364.34;;;2.73;73.68
46111;BME280;31849;55.992;37.252;2023-12-20T13:57:01;97377.16;;;2.79;74.05
46111;BME280;31849;55.992;37.252;2023-12-20T14:02:17;97393.41;;;2.83;74.67
46111;BME280;31849;55.992;37.252;2023-12-20T14:07:22;97389.06;;;2.92;74.05
46111;BME280;31849;55.992;37.252;2023-12-20T14:12:26;97403.59;;;2.98;73.90
46111;BME280;31849;55.992;37.252;2023-12-20T14:17:29;97407.06;;;2.88;74.82
46111;BME280;31849;55.992;37.252;2023-12-20T14:22:35;97419.13;;;2.66;74.34
46111;BME280;31849;55.992;37.252;2023-12-20T14:27:41;97425.06;;;2.81;74.42
46111;BME280;31849;55.992;37.252;2023-12-20T14:32:47;97429.31;;;2.89;73.88
46111;BME280;31849;55.992;37.252;2023-12-20T14:37:52;97402.84;;;2.73;73.40
46111;BME280;31849;55.992;37.252;2023-12-20T14:42:56;97425.88;;;2.90;74.20
46111;BME280;31849;55.992;37.252;2023-12-20T14:48:00;97421.72;;;2.56;73.69
46111;BME280;31849;55.992;37.252;2023-12-20T14:53:05;97427.78;;;2.35;73.54
46111;BME280;31849;55.992;37.252;2023-12-20T14:58:10;97440.63;;;2.09;73.55
46111;BME280;31849;55.992;37.252;2023-12-20T15:03:14;97444.91;;;1.90;73.28
46111;BME280;31849;55.992;37.252;2023-12-20T15:08:21;97457.75;;;1.79;74.33
46111;BME280;31849;55.992;37.252;2023-12-20T15:13:25;97462.84;;;1.91;73.51
46111;BME280;31849;55.992;37.252;2023-12-20T15:18:30;97461.16;;;2.01;73.31
46111;BME280;31849;55.992;37.252;2023-12-20T15:23:35;97465.44;;;2.05;73.03
46111;BME280;31849;55.992;37.252;2023-12-20T15:28:39;97460.31;;;2.11;73.07
46111;BME280;31849;55.992;37.252;2023-12-20T15:33:43;97467.13;;;2.20;73.46
46111;BME280;31849;55.992;37.252;2023-12-20T15:38:48;97462.00;;;2.14;73.71
46111;BME280;31849;55.992;37.252;2023-12-20T15:43:52;97461.16;;;2.20;73.95
46111;BME280;31849;55.992;37.252;2023-12-20T15:48:56;97466.28;;;2.23;73.61
46111;BME280;31849;55.992;37.252;2023-12-20T15:54:01;97467.97;;;2.27;73.55
46111;BME280;31849;55.992;37.252;2023-12-20T15:59:08;97478.22;;;2.28;72.85
46111;BME280;31849;55.992;37.252;2023-12-20T16:04:12;97491.91;;;2.32;73.32
46111;BME280;31849;55.992;37.252;2023-12-20T16:09:17;97498.72;;;2.30;72.48
46111;BME280;31849;55.992;37.252;2023-12-20T16:14:21;97503.00;;;2.37;72.28
46111;BME280;31849;55.992;37.252;2023-12-20T16:19:27;97504.72;;;2.35;71.34
46111;BME280;31849;55.992;37.252;2023-12-20T16:24:33;97509.00;;;2.27;71.58
46111;BME280;31849;55.992;37.252;2023-12-20T16:29:37;97524.38;;;2.27;71.38
46111;BME280;31849;55.992;37.252;2023-12-20T16:34:41;97517.56;;;2.27;70.87
46111;BME280;31849;55.992;37.252;2023-12-20T16:39:47;97523.53;;;2.31;70.80
46111;BME280;31849;55.992;37.252;2023-12-20T16:44:50;97523.53;;;2.17;70.81
46111;BME280;31849;55.992;37.252;2023-12-20T16:49:54;97523.53;;;2.26;71.60
46111;BME280;31849;55.992;37.252;2023-12-20T16:54:59;97517.56;;;2.20;70.97
46111;BME280;31849;55.992;37.252;2023-12-20T17:00:05;97520.09;;;2.17;71.28
46111;BME280;31849;55.992;37.252;2023-12-20T17:05:10;97510.72;;;2.17;70.92
46111;BME280;31849;55.992;37.252;2023-12-20T17:10:15;97501.31;;;2.08;70.47
46111;BME280;31849;55.992;37.252;2023-12-20T17:15:20;97501.34;;;1.99;70.41
46111;BME280;31849;55.992;37.252;2023-12-20T17:20:24;97498.75;;;1.91;70.33
46111;BME280;31849;55.992;37.252;2023-12-20T17:25:29;97508.16;;;1.91;70.83
46111;BME280;31849;55.992;37.252;2023-12-20T17:30:33;97496.22;;;1.98;70.49
46111;BME280;31849;55.992;37.252;2023-12-20T17:35:37;97500.47;;;2.00;70.50
46111;BME280;31849;55.992;37.252;2023-12-20T17:40:43;97498.75;;;2.07;69.49
46111;BME280;31849;55.992;37.252;2023-12-20T17:45:47;97509.84;;;2.10;69.77
46111;BME280;31849;55.992;37.252;2023-12-20T17:50:52;97501.34;;;2.02;70.11
46111;BME280;31849;55.992;37.252;2023-12-20T17:55:57;97508.16;;;1.91;69.51
46111;BME280;31849;55.992;37.252;2023-12-20T18:01:00;97520.97;;;1.83;70.42
46111;BME280;31849;55.992;37.252;2023-12-20T18:06:06;97526.94;;;1.84;70.07
46111;BME280;31849;55.992;37.252;2023-12-20T18:11:11;97521.81;;;1.79;69.83
46111;BME280;31849;55.992;37.252;2023-12-20T18:16:16;97513.28;;;1.80;69.82
46111;BME280;31849;55.992;37.252;2023-12-20T18:21:21;97511.56;;;1.74;70.61
46111;BME280;31849;55.992;37.252;2023-12-20T18:26:26;97512.41;;;1.72;70.20
46111;BME280;31849;55.992;37.252;2023-12-20T18:31:30;97517.53;;;1.73;70.17
46111;BME280;31849;55.992;37.252;2023-12-20T18:36:34;97516.69;;;1.71;70.19
46111;BME280;31849;55.992;37.252;2023-12-20T18:41:39;97516.69;;;1.71;70.68
46111;BME280;31849;55.992;37.252;2023-12-20T18:46:50;97520.06;;;1.69;70.79
46111;BME280;31849;55.992;37.252;2023-12-20T18:51:53;97502.16;;;1.72;70.49
46111;BME280;31849;55.992;37.252;2023-12-20T18:56:59;97509.84;;;1.73;71.04
46111;BME280;31849;55.992;37.252;2023-12-20T19:02:04;97507.28;;;1.75;70.86
46111;BME280;31849;55.992;37.252;2023-12-20T19:07:11;97503.88;;;1.79;70.76
46111;BME280;31849;55.992;37.252;2023-12-20T19:12:16;97503.03;;;1.71;70.58
46111;BME280;31849;55.992;37.252;2023-12-20T19:17:19;97507.28;;;1.73;70.45
46111;BME280;31849;55.992;37.252;2023-12-20T19:22:23;97511.56;;;1.73;70.68
46111;BME280;31849;55.992;37.252;2023-12-20T19:27:32;97512.41;;;1.69;70.83
46111;BME280;31849;55.992;37.252;2023-12-20T19:32:36;97514.94;;;1.64;70.46
46111;BME280;31849;55.992;37.252;2023-12-20T19:37:39;97508.97;;;1.64;70.54
46111;BME280;31849;55.992;37.252;2023-12-20T19:42:44;97506.41;;;1.56;70.61
46111;BME280;31849;55.992;37.252;2023-12-20T19:47:49;97505.53;;;1.62;70.52
46111;BME280;31849;55.992;37.252;2023-12-20T19:52:53;97504.69;;;1.55;71.14
46111;BME280;31849;55.992;37.252;2023-12-20T19:57:58;97498.72;;;1.61;70.45
46111;BME280;31849;55.992;37.252;2023-12-20T20:03:02;97490.16;;;1.55;70.03
46111;BME280;31849;55.992;37.252;2023-12-20T20:08:06;97497.84;;;1.46;70.10
46111;BME280;31849;55.992;37.252;2023-12-20T20:13:11;97480.75;;;1.37;70.38
46111;BME280;31849;55.992;37.252;2023-12-20T20:18:15;97497.81;;;1.29;71.09
46111;BME280;31849;55.992;37.252;2023-12-20T20:23:20;97489.22;;;1.18;70.66
46111;BME280;31849;55.992;37.252;2023-12-20T20:28:26;97475.53;;;1.07;71.54
46111;BME280;31849;55.992;37.252;2023-12-20T20:33:31;97487.50;;;1.08;71.33
46111;BME280;31849;55.992;37.252;2023-12-20T20:38:34;97482.34;;;0.94;72.41
46111;BME280;31849;55.992;37.252;2023-12-20T20:43:39;97471.22;;;0.96;72.61
46111;BME280;31849;55.992;37.252;2023-12-20T20:48:43;97457.59;;;0.97;72.65
46111;BME280;31849;55.992;37.252;2023-12-20T20:53:53;97433.72;;;0.97;71.89
46111;BME280;31849;55.992;37.252;2023-12-20T20:59:14;97444.78;;;0.90;72.82
46111;BME280;31849;55.992;37.252;2023-12-20T21:04:17;97443.06;;;0.93;72.41
46111;BME280;31849;55.992;37.252;2023-12-20T21:09:21;97439.69;;;0.97;71.94
46111;BME280;31849;55.992;37.252;2023-12-20T21:14:26;97432.00;;;0.99;72.98
46111;BME280;31849;55.992;37.252;2023-12-20T21:19:30;97434.56;;;1.00;72.80
46111;BME280;31849;55.992;37.252;2023-12-20T21:24:35;97417.53;;;1.04;72.34
46111;BME280;31849;55.992;37.252;2023-12-20T21:29:39;97403.88;;;1.03;72.13
46111;BME280;31849;55.992;37.252;2023-12-20T21:34:43;97404.69;;;0.99;72.87
46111;BME280;31849;55.992;37.252;2023-12-20T21:39:47;97391.91;;;0.95;73.14
46111;BME280;31849;55.992;37.252;2023-12-20T21:44:53;97369.69;;;0.80;73.45
46111;BME280;31849;55.992;37.252;2023-12-20T21:49:57;97357.78;;;0.80;73.88
46111;BME280;31849;55.992;37.252;2023-12-20T21:55:01;97357.78;;;0.83;74.03
46111;BME280;31849;55.992;37.252;2023-12-20T22:00:08;97339.88;;;0.80;74.44
46111;BME280;31849;55.992;37.252;2023-12-20T22:05:11;97324.47;;;0.76;73.77
46111;BME280;31849;55.992;37.252;2023-12-20T22:10:15;97321.06;;;0.67;75.31
46111;BME280;31849;55.992;37.252;2023-12-20T22:15:21;97291.22;;;0.66;74.36
46111;BME280;31849;55.992;37.252;2023-12-20T22:20:25;97294.66;;;0.73;74.65
46111;BME280;31849;55.992;37.252;2023-12-20T22:25:29;97289.53;;;0.76;74.35
46111;BME280;31849;55.992;37.252;2023-12-20T22:30:34;97286.16;;;0.90;74.47
46111;BME280;31849;55.992;37.252;2023-12-20T22:35:38;97290.41;;;0.95;74.42
46111;BME280;31849;55.992;37.252;2023-12-20T22:40:44;97283.59;;;0.91;74.82
46111;BME280;31849;55.992;37.252;2023-12-20T22:45:50;97276.75;;;0.88;74.72
46111;BME280;31849;55.992;37.252;2023-12-20T22:50:55;97277.63;;;0.98;74.14
46111;BME280;31849;55.992;37.252;2023-12-20T22:55:58;97268.22;;;1.05;73.87
46111;BME280;31849;55.992;37.252;2023-12-20T23:01:04;97263.13;;;1.03;74.38
46111;BME280;31849;55.992;37.252;2023-12-20T23:06:08;97248.59;;;1.01;74.28
46111;BME280;31849;55.992;37.252;2023-12-20T23:11:11;97242.63;;;1.10;74.48
46111;BME280;31849;55.992;37.252;2023-12-20T23:16:17;97251.19;;;1.12;74.35
46111;BME280;31849;55.992;37.252;2023-12-20T23:21:21;97247.78;;;1.17;74.37
46111;BME280;31849;55.992;37.252;2023-12-20T23:26:25;97240.06;;;1.08;75.04
46111;BME280;31849;55.992;37.252;2023-12-20T23:31:30;97234.13;;;0.95;75.32
46111;BME280;31849;55.992;37.252;2023-12-20T23:36:34;97214.50;;;0.86;75.54
46111;BME280;31849;55.992;37.252;2023-12-20T23:41:37;97210.25;;;0.76;76.11
46111;BME280;31849;55.992;37.252;2023-12-20T23:46:42;97205.13;;;0.67;76.73
46111;BME280;31849;55.992;37.252;2023-12-20T23:51:46;97205.13;;;0.70;75.94
46111;BME280;31849;55.992;37.252;2023-12-20T23:56:50;97207.66;;;0.56;77.62
